Tiempo atmosférico en la estación meteorológica de Menorca Aeropuerto, Illes Balears (91 m.)



Fecha
DESCASC
Temp. máxima en grados centígrados (hora)
DESCASC
Temp. mínima en grados centígrados (hora)
DESCASC
Temp. media en grados centígrados
DESCASC
Racha de viento máxima en m/sg (hora)
DESCASC
Velocidad máxima media en intervalos de 10 minutos(hora)
DESCASC
Precipitaciones diarias en mm
DESCASC
Precipitaciones de 00:00 a 06:00 en mm
DESCASC
Precipitaciones de 06:00 a 12:00 en mm
DESCASC
Precipitaciones de 12:00 a 18:00 en mm
DESCASC
Precipitaciones de 18:00 a 24:00 en mm
DESCASC

Gráficas

Temp. máximas Temp. mínimas Temp. medias Precipitaciones Rachas de viento máximas Velocidades máximas media en intervalos de 10 minutos

Datos horarios

Fecha y hora oficial Temperatura (ºC) Velocidad del viento (km/h) Dirección del viento Racha (km/h) Dirección de racha Precipitación (mm) Presión (hPa) Tendencia (hPa) Humedad (%)
2020-07-05 23:00:00 22.7 9 Oeste 18 Oeste 0 1007.5 0.4 88
2020-07-05 22:00:00 23.4 13 Oeste 28 Oeste 0 1007.2 -0.3 88
2020-07-05 21:00:00 24.5 13 Oeste 24 Oeste 0 1007.1 -0.7 81
2020-07-05 20:00:00 26 14 Oeste 32 Oeste 0 1007.1 -1.4 73
2020-07-05 19:00:00 26.5 20 Oeste 32 Oeste 0 1007.5 -1.4 70
2020-07-05 18:00:00 27.8 22 Oeste 32 Oeste 0 1007.8 -- 61
2020-07-05 17:00:00 29.1 21 Oeste 33 Oeste 0 1008.5 -- 49
2020-07-05 16:00:00 29 22 Oeste 33 Sudoeste 0 1008.9 -- 52
2020-07-05 15:00:00 28.6 23 Oeste 42 Oeste 0 1009.4 -- 51
2020-07-05 14:00:00 30.1 12 Noroeste 33 Noroeste 0 1009.9 -- 33
2020-07-05 13:00:00 29.6 17 Norte 30 Noroeste 0 1010.2 -- 35
2020-07-05 12:00:00 29.1 16 Norte 39 Norte 0 1010.4 -- 36
2020-07-05 11:00:00 28 16 Norte 33 Norte 0 1010.4 -- 39
2020-07-05 10:00:00 26.7 18 Norte 32 Norte 0 1010.5 -- 46
2020-07-05 09:00:00 24.9 12 Noroeste 22 Noroeste 0 1010.4 -- 68
2020-07-05 08:00:00 23 9 Noroeste -- -- -- 1010.2 -- 84
2020-07-05 07:00:00 -- -- -- -- -- -- -- -- --
2020-07-05 06:00:00 -- -- -- -- -- -- -- -- --
2020-07-05 05:00:00 -- -- -- -- -- -- -- -- --
2020-07-05 04:00:00 19.9 11 Noroeste 15 Noroeste 0 1010.1 -- 91
2020-07-05 03:00:00 19.8 8 Noroeste 13 Noroeste 0 1010.2 -- 89
2020-07-05 02:00:00 20 7 Noroeste 11 Noroeste 0 1010.9 -- 88
2020-07-05 01:00:00 21.4 7 Oeste 15 Oeste 0 1011.2 -- 84
2020-07-05 00:00:00 21.9 12 Oeste 17 Oeste 0 1011 -- 82
2020-07-04 23:00:00 22 9 Oeste 13 Oeste 0 1011.2 -- 80
2020-07-04 22:00:00 22.6 0 Calma 15 Oeste 0 1010.9 -- 75
2020-07-04 21:00:00 23.6 9 Oeste 21 Oeste 0 1010.8 -- 71
2020-07-04 20:00:00 24.2 10 Oeste 26 Oeste 0 1010.6 -- 68
2020-07-04 19:00:00 25.9 17 Sudoeste 26 Sudoeste 0 1010.3 -- 60
2020-07-04 18:00:00 26.3 17 Oeste 24 Sudoeste 0 1010.7 -- 56
2020-07-04 17:00:00 26.4 15 Oeste 30 Oeste 0 1011 -- 55
2020-07-04 16:00:00 26.8 20 Oeste 32 Oeste 0 1011.2 -- 52
2020-07-04 15:00:00 27.4 13 Oeste 45 Oeste 0 1011.3 -- 47
2020-07-04 14:00:00 26.5 11 Oeste 26 Oeste 0 1011.6 -- 48
2020-07-04 13:00:00 25.1 15 Noroeste 32 Norte 0 1011.9 -- 50
2020-07-04 12:00:00 24.9 14 Norte 33 Norte 0 1012 -- 50
2020-07-04 11:00:00 25.1 16 Norte 33 Norte 0 1011.7 -- 48
2020-07-04 10:00:00 23.8 23 Norte 33 Nordeste 0 1011.5 -- 50
2020-07-04 09:00:00 23.1 21 Norte 33 Norte 0 1011.4 -- 54
2020-07-04 08:00:00 22.2 19 Norte 28 Norte 0 1011.1 -- 61
2020-07-04 07:00:00 21.9 15 Norte 22 Norte 0 1010.7 -- 59
2020-07-04 06:00:00 21.7 9 Norte 15 Norte 0 1010.4 -- 59
2020-07-04 05:00:00 21.7 9 Norte 22 Norte 0 1010.2 -- 63
2020-07-04 04:00:00 22.2 13 Norte 28 Norte 0 1010.1 -- 63
2020-07-04 03:00:00 21.9 21 Norte 30 Norte 0 1010.5 -- 63
2020-07-04 02:00:00 21.1 17 Norte 28 Norte 0 1010.5 -- 62
2020-07-04 01:00:00 21.4 17 Norte 28 Norte 0 1010.7 -- 59
2020-07-04 00:00:00 21 14 Norte 24 Norte 0 1010.7 -- 62
2020-07-03 23:00:00 21.4 18 Norte 26 Norte 0 1010.2 -- 60
2020-07-03 22:00:00 21.7 14 Norte 24 Norte 0 1009.4 -- 60
2020-07-03 21:00:00 22.6 20 Norte 33 Norte 0 1008.9 -- 56
2020-07-03 20:00:00 23.7 22 Norte 37 Norte 0 1008.5 -- 51
2020-07-03 19:00:00 24.5 28 Nordeste 41 Nordeste 0 1008.2 -- 50
2020-07-03 18:00:00 24.8 32 Norte 48 Norte 0 1008.1 -- 48
2020-07-03 17:00:00 25.2 37 Nordeste 58 Norte 0 1008.4 -- 42
2020-07-03 16:00:00 25.6 43 Nordeste 58 Norte 0 1008.2 -- 39
2020-07-03 15:00:00 26.4 44 Nordeste 58 Nordeste 0 1008.1 -- 38
2020-07-03 14:00:00 26 42 Norte 63 Nordeste 0 1008.3 -- 41
2020-07-03 13:00:00 25.2 42 Norte 61 Norte 0 1008.5 -- 52
2020-07-03 12:00:00 24.5 50 Norte 68 Norte 0 1008.1 -- 57
2020-07-03 11:00:00 24.3 50 Norte 65 Norte 0 1007.6 -- 58
2020-07-03 10:00:00 24.3 42 Nordeste 61 Norte 0 1007.2 -- 60
2020-07-03 09:00:00 24 41 Nordeste 55 Nordeste 0 1006.9 -- 61
2020-07-03 08:00:00 23.5 39 Nordeste 50 Norte -- 1006.3 -- 65
2020-07-03 07:00:00 -- -- -- -- -- -- -- -- --
2020-07-03 06:00:00 -- -- -- -- -- -- -- -- --
2020-07-03 05:00:00 -- -- -- -- -- -- -- -- --
2020-07-03 04:00:00 -- -- -- -- -- -- -- -- --
2020-07-03 03:00:00 -- -- -- -- -- -- -- -- --
2020-07-03 02:00:00 -- -- -- -- -- -- -- -- --
2020-07-03 01:00:00 -- -- -- -- -- -- -- -- --
2020-07-03 00:00:00 -- -- -- -- -- -- -- -- --
2020-07-02 23:00:00 24.2 21 Nordeste 30 Norte 0 1004.3 -- 84
2020-07-02 22:00:00 24.2 18 Nordeste 32 Nordeste 0 1003.7 -- 80
2020-07-02 21:00:00 25 15 Nordeste 26 Este 0 1003.3 -- 80
2020-07-02 20:00:00 27 12 Este 21 Este 0 1002.8 -- 69
2020-07-02 19:00:00 27.8 15 Este 28 Este 0 1002.5 -- 64
2020-07-02 18:00:00 28.5 16 Este 26 Este 0 1002.7 -- 62
2020-07-02 17:00:00 29 15 Este 28 Norte 0 1002.8 -- 60
2020-07-02 16:00:00 29.3 16 Este 30 Este 0 1003 -- 58
2020-07-02 15:00:00 29.8 14 Este 26 Este 0 1003.5 -- 57
2020-07-02 14:00:00 29.7 12 Este 32 Este 0 1004 -- 55
2020-07-02 13:00:00 29.8 13 Este 24 Este 0 1003.9 -- 54
2020-07-02 12:00:00 29.2 11 Este 22 Este 0 1003.8 -- 53
2020-07-02 11:00:00 28.6 11 Este 24 Nordeste 0 1003.4 -- 54
2020-07-02 10:00:00 27.5 13 Nordeste 22 Nordeste 0 1003.3 -- 59
2020-07-02 09:00:00 26.3 14 Nordeste -- -- -- 1003.4 -- 69
2020-07-02 08:00:00 -- -- -- -- -- -- -- -- --
2020-07-02 07:00:00 -- -- -- -- -- -- -- -- --
2020-07-02 06:00:00 -- -- -- -- -- -- -- -- --
2020-07-02 05:00:00 -- -- -- -- -- -- -- -- --
2020-07-02 04:00:00 -- -- -- -- -- -- -- -- --
2020-07-02 03:00:00 -- -- -- -- -- -- -- -- --
2020-07-02 02:00:00 -- -- -- -- -- -- -- -- --
2020-07-02 01:00:00 22.6 5 Noroeste -- -- 0 1002.7 -- 92
2020-07-02 00:00:00 23.2 3 Noroeste 15 Norte 0 1002.5 -- 91
2020-07-01 23:00:00 23.8 9 Norte 17 Norte 0 1001.9 -- 82
2020-07-01 22:00:00 25 9 Norte 17 Norte 0 1000.9 -- 75
2020-07-01 21:00:00 27 10 Noroeste 26 Noroeste 0 1000.4 -- 61
2020-07-01 20:00:00 29.3 13 Norte 24 Noroeste 0 1000 -- 51
2020-07-01 19:00:00 30.7 15 Noroeste 30 Norte 0 -- -- 44
2020-07-01 18:00:00 30.7 14 Noroeste 37 Norte 0 999.7 -- 53
2020-07-01 17:00:00 28.8 22 Oeste 30 Oeste 0 999.5 -- 64
2020-07-01 16:00:00 28.9 12 Oeste 22 Oeste 0 999.8 -- 62
2020-07-01 15:00:00 29.9 5 Este 26 Este 0 999.8 -- 58
2020-07-01 14:00:00 29 20 Sudeste 35 Sudeste 0 1000 -- 60
2020-07-01 13:00:00 28.8 25 Sudeste 48 Sudeste 0 1000.7 -- 58
2020-07-01 12:00:00 29.2 28 Sudeste 45 Sudeste 0 1001.1 -- 55
2020-07-01 11:00:00 29.2 31 Sudeste 46 Sudeste 0 1000.7 -- 52
2020-07-01 10:00:00 27.8 26 Sudeste 39 Este 0 1001.1 -- 62
2020-07-01 09:00:00 26.8 23 Nordeste -- -- -- 1001 -- 69
2020-07-01 08:00:00 -- -- -- -- -- -- -- -- --
2020-07-01 07:00:00 -- -- -- -- -- -- -- -- --
2020-07-01 06:00:00 -- -- -- -- -- -- -- -- --
2020-07-01 05:00:00 -- -- -- -- -- -- -- -- --
2020-07-01 04:00:00 -- -- -- -- -- -- -- -- --
2020-07-01 03:00:00 -- -- -- -- -- -- -- -- --
2020-07-01 02:00:00 -- -- -- -- -- -- -- -- --
2020-07-01 01:00:00 -- -- -- -- -- -- -- -- --
2020-07-01 00:00:00 23.5 13 Este 24 Este 0 1003.4 -- 88
2020-06-30 23:00:00 23.5 14 Este 21 Este 0 1003.5 -- 87
2020-06-30 22:00:00 23.7 14 Este 22 Este 0 1003.3 -- 85
2020-06-30 21:00:00 24.5 16 Este 22 Este 0 1003.2 -- 80
2020-06-30 20:00:00 26.1 15 Este 22 Sudeste 0 1003.4 -- 70
2020-06-30 19:00:00 27 16 Sudeste 26 Sudeste 0 1003.2 -- 65
2020-06-30 18:00:00 28.2 18 Este 28 Este 0 1003.8 -- 61
2020-06-30 17:00:00 28.4 14 Sudeste 26 Sudeste 0 1004.5 -- 57
2020-06-30 16:00:00 28.5 15 Sudeste 32 Este 0 1004.9 -- 57
2020-06-30 15:00:00 28.8 21 Este 30 Este 0 1004.9 -- 56
2020-06-30 14:00:00 28.6 18 Sudeste 30 Este 0 1005.6 -- 58
2020-06-30 13:00:00 28.4 15 Sudeste 32 Este 0 1005.8 -- 57
2020-06-30 12:00:00 27.8 17 Este 28 Este 0 1005.8 -- 61
2020-06-30 11:00:00 27.5 16 Este 30 Este 0 1005.7 -- 61
2020-06-30 10:00:00 26.5 18 Este 28 Nordeste 0 1005.6 -- 62
2020-06-30 09:00:00 25.5 17 Nordeste 24 Este 0 1005.5 -- 71
2020-06-30 08:00:00 24.1 15 Nordeste -- -- -- 1005.1 -- 80
2020-06-30 07:00:00 -- -- -- -- -- -- -- -- --
2020-06-30 06:00:00 -- -- -- -- -- -- -- -- --
2020-06-30 05:00:00 -- -- -- -- -- -- -- -- --
2020-06-30 04:00:00 -- -- -- -- -- -- -- -- --
2020-06-30 03:00:00 21.9 14 Nordeste 17 Nordeste 0 1005.3 -- 88
2020-06-30 02:00:00 22.1 12 Nordeste 15 Nordeste 0 1005.9 -- 88
2020-06-30 01:00:00 22.5 11 Nordeste 13 Nordeste 0 1006.4 -- 86
2020-06-30 00:00:00 22.7 9 Este 13 Este 0 1006.5 -- 86
2020-06-29 23:00:00 23 11 Nordeste 18 Este 0 1006.2 -- 85
2020-06-29 22:00:00 23.5 10 Este 17 Nordeste 0 1006 -- 82
2020-06-29 21:00:00 24.7 12 Este 18 Nordeste 0 1005.8 -- 76
2020-06-29 20:00:00 26.5 12 Este 28 Este 0 1005.9 -- 66
2020-06-29 19:00:00 27.7 11 Este 24 Este 0 1006 -- 58
2020-06-29 18:00:00 28.2 14 Este 28 Este 0 1006.2 -- 55
2020-06-29 17:00:00 28.6 14 Este 28 Este 0 1006.5 -- 53
2020-06-29 16:00:00 29.2 16 Este 28 Este 0 1006.8 -- 49
2020-06-29 15:00:00 29.1 17 Nordeste 28 Nordeste 0 1007.3 -- 49
2020-06-29 14:00:00 29.1 17 Este 28 Norte 0 1007.5 -- 55
2020-06-29 13:00:00 -- -- -- -- -- -- -- -- --
2020-06-29 12:00:00 -- -- -- -- -- -- -- -- --
2020-06-29 11:00:00 -- -- -- -- -- -- -- -- --
2020-06-29 10:00:00 -- -- -- -- -- -- -- -- --
2020-06-29 09:00:00 -- -- -- -- -- -- -- -- --
2020-06-29 08:00:00 -- -- -- -- -- -- -- -- --
2020-06-29 07:00:00 21.8 4 Noroeste 11 Noroeste 0 1006.7 -- 96
2020-06-29 06:00:00 20.8 5 Noroeste 9 Noroeste 0 1006.4 -- 95
2020-06-29 05:00:00 21.1 8 Oeste 11 Noroeste 0 1006.3 -- 94
2020-06-29 04:00:00 21.7 8 Oeste 13 Oeste 0 1006.6 -- 93
2020-06-29 03:00:00 22.1 9 Oeste 13 Sudoeste 0 1006.7 -- 92
2020-06-29 02:00:00 22.1 8 Sudoeste 13 Sudoeste 0 1006.9 -- 92
2020-06-29 01:00:00 21.6 8 Sudoeste 11 Sudoeste 0 1007.1 -- 92
2020-06-29 00:00:00 21.3 8 Sudoeste 9 Sudoeste 0 1007.1 -- 88
2020-06-28 23:00:00 21.9 6 Sudoeste 9 Sudoeste 0 1007 -- 85
2020-06-28 22:00:00 22.7 6 Sur 11 Sur 0 1006.7 -- 81
2020-06-28 21:00:00 24.7 9 Sur 17 Sur 0 1006.6 -- 73
2020-06-28 20:00:00 26.1 11 Sur 21 Sur 0 1006.4 -- 67
2020-06-28 19:00:00 28.5 8 Sur 17 Sudoeste 0 1006.4 -- 62
2020-06-28 18:00:00 27.9 9 Sudoeste 21 Sudoeste 0 1006.8 -- 63
2020-06-28 17:00:00 27.9 13 Sudoeste 22 Sudoeste 0 1007.3 -- 60
2020-06-28 16:00:00 27.4 13 Sur 24 Sur 0 1007.9 0 60
2020-06-28 15:00:00 27.6 18 Sur 26 Sur 0 1007.9 -- 60
2020-06-28 14:00:00 27.2 16 Sudoeste 24 Sudoeste 0 1007.9 -- 63
2020-06-28 13:00:00 28.6 12 Sudoeste 24 Norte 0 1007.9 -- 60
2020-06-28 12:00:00 28.6 10 Nordeste 22 Nordeste 0 1007.9 -- 54
2020-06-28 11:00:00 27.8 9 Nordeste 24 Norte 0 1007.7 -- 52
2020-06-28 10:00:00 26.3 13 Norte 22 Norte 0 1007.5 -- 63
2020-06-28 09:00:00 24.9 8 Norte 17 Norte 0 1007.5 -- 71
2020-06-28 08:00:00 23 9 Norte 13 Norte 0 1007.2 -- 83
2020-06-28 07:00:00 20.1 13 Norte -- -- 0 1006.9 -- 95
2020-06-28 06:00:00 19.2 11 Norte -- -- 0 1006.4 -- 95
2020-06-28 05:00:00 -- -- -- -- -- 0 1006.4 -- --
2020-06-28 04:00:00 18.9 5 Noroeste 8 Noroeste 0 1006.6 -- 94
2020-06-28 03:00:00 18.6 0 Calma 2 Norte 0 1006.8 -- 92
2020-06-28 02:00:00 19.4 4 Norte -- -- 0 1007 -- 91
2020-06-28 01:00:00 19.4 3 Norte 8 Norte 0 1006.7 -- 87
2020-06-28 00:00:00 21.1 6 Nordeste -- -- 0 1006.6 -- 85
2020-06-27 23:00:00 21.9 6 Este 9 Este 0 1006.1 -- 84
2020-06-27 22:00:00 22.5 6 Este 22 Este 0 1005.7 -- 81
2020-06-27 21:00:00 23.9 9 Este 15 Este 0 1005.3 -- 72
2020-06-27 20:00:00 25.6 10 Este 17 Este 0 1005.1 -- 65
2020-06-27 19:00:00 24.9 11 Este 21 Sudoeste 0 1005 -- 70
2020-06-27 18:00:00 25.7 8 Sur 18 Sur 0 1005.4 -- 71
2020-06-27 17:00:00 25.9 9 Sur 21 Sur 0 1005.2 -- 69
2020-06-27 16:00:00 25.5 10 Sur 22 Sur 0 1005.4 -- 70
2020-06-27 15:00:00 25.2 13 Sur 22 Sudeste 0 1005.3 -- 72
2020-06-27 14:00:00 25.1 13 Sudeste 24 Sudeste 0 1005.4 -- 73
2020-06-27 13:00:00 25.4 12 Sur 18 Sur 0 1005.5 -- 70
2020-06-27 12:00:00 24.7 14 Sur 21 Sur 0 1005.5 -- 74
2020-06-27 11:00:00 24.9 14 Sur 26 Sudeste 0 1005.4 -- 71
2020-06-27 10:00:00 24.9 16 Sudeste 26 Sudeste 0 1005.1 -- 70
2020-06-27 09:00:00 24.8 15 Sudeste 26 Este 0 1004.8 -- 73
2020-06-27 08:00:00 23.4 13 Este 24 Este 0 1004.4 -- 82
2020-06-27 07:00:00 20.9 11 Este 13 Este 0 1004.3 -- 91
2020-06-27 06:00:00 20.7 2 Este 11 Sudeste 0 1004.4 -- 91
2020-06-27 05:00:00 21.1 8 Sudeste 9 Este 0 1004.4 -- 90
2020-06-27 04:00:00 21.7 6 Sudeste 13 Sudeste 0 1004.3 -- 88
2020-06-27 03:00:00 22.1 13 Sudeste 28 Sudeste 0 1004.4 -- 86
2020-06-27 02:00:00 22.2 16 Sudeste 26 Sudeste 0 1004.7 -- 87
2020-06-27 01:00:00 21.9 13 Sudeste 24 Sudeste 0 1005.1 -- 88
2020-06-27 00:00:00 22.3 13 Sudeste 18 Sudeste 0 1005 -- 86
2020-06-26 23:00:00 22.2 9 Sudeste 15 Sudeste 0 1004.9 -- 87
2020-06-26 22:00:00 22.5 12 Sudeste 21 Este 0 1003.9 -- 85
2020-06-26 21:00:00 23.6 14 Este 24 Este 0 1003.3 -- 78
2020-06-26 20:00:00 25.4 15 Este 24 Sudeste 0 1003.1 -- 66
2020-06-26 19:00:00 26.3 14 Sudeste 22 Sudeste 0 1003.7 -- 61
2020-06-26 18:00:00 27.8 13 Sur 24 Sudeste 0 1004.2 -- 56
2020-06-26 17:00:00 27.4 14 Sur 28 Sur 0 1004.6 -- 62
2020-06-26 16:00:00 28.3 20 Sur 28 Sur 0 1005.2 -- 61
2020-06-26 15:00:00 28.4 14 Sur 26 Sur 0 1005.1 -- 60
2020-06-26 14:00:00 30 19 Sur 30 Este 0 1005.3 -- 51
2020-06-26 13:00:00 28.3 15 Sudeste 32 Sudeste 0 1005.5 -- 49
2020-06-26 12:00:00 28.5 22 Sudeste 35 Este 0 1005.7 -- 46
2020-06-26 11:00:00 29.9 15 Este 22 Este 0 1005.5 -- 33
2020-06-26 10:00:00 27.5 14 Nordeste 22 Nordeste 0 1005.4 -- 49
2020-06-26 09:00:00 25.3 15 Nordeste 21 Nordeste 0 1005.5 -- 68
2020-06-26 08:00:00 22.5 15 Nordeste 22 Nordeste 0 1005.4 -- 96
2020-06-26 07:00:00 21.4 17 Nordeste 22 Nordeste 0 1004.8 -- 98
2020-06-26 06:00:00 20.9 10 Nordeste 17 Nordeste 0 1005.1 -- 97
2020-06-26 05:00:00 21.2 13 Nordeste 17 Nordeste 0 1005.2 -- 97
2020-06-26 04:00:00 21.2 9 Nordeste 15 Este 0 1005.7 -- 95
2020-06-26 03:00:00 21.6 12 Nordeste 17 Nordeste 0 1006 -- 94
2020-06-26 02:00:00 21.7 15 Nordeste 18 Nordeste 0 1006 -- 92
2020-06-26 01:00:00 21.7 13 Nordeste 17 Este 0 1006.2 -- 86
2020-06-26 00:00:00 22.3 14 Nordeste 18 Nordeste 0 1006.1 -- 79
2020-06-25 23:00:00 22.7 14 Nordeste 21 Nordeste 0 1006 -- 75
2020-06-25 22:00:00 23.4 14 Nordeste 30 Nordeste 0 1005.8 -- 68
2020-06-25 21:00:00 25.7 12 Este 18 Sudeste 0 1005.3 -- 38
2020-06-25 20:00:00 27.5 13 Este 28 Este 0 1005.6 -- 31
2020-06-25 19:00:00 27.8 21 Este 30 Este 0 1005.5 -- 37
2020-06-25 18:00:00 28.7 20 Este 32 Este 0 1005.8 -- 36
2020-06-25 17:00:00 28.8 23 Nordeste 33 Norte 0 1006 -- 39
2020-06-25 16:00:00 29.3 23 Este 32 Este 0 1006.3 -- 40
2020-06-25 15:00:00 28.9 22 Este 30 Este 0 1006.5 -- 45
2020-06-25 14:00:00 29.9 21 Este 30 Este 0 1007 -- 34
2020-06-25 13:00:00 29.6 21 Sudeste 28 Sudeste 0 1007.2 -- 31
2020-06-25 12:00:00 30.2 18 Sudeste 24 Sudeste 0 1007.1 -- 30
2020-06-25 11:00:00 29.8 16 Este 24 Sudeste 0 1006.6 -- 29
2020-06-25 10:00:00 28.2 12 Sudeste 21 Norte 0 1006.6 -- 39
2020-06-25 09:00:00 26.3 12 Este 21 Este 0 1006.4 -- 50
2020-06-25 08:00:00 23.2 10 Este 18 Este 0 1006.2 -- 83
2020-06-25 07:00:00 20.9 11 Este 15 Este 0 1006.1 -- 97
2020-06-25 06:00:00 19.9 13 Este 15 Este 0 1006.2 -- 97
2020-06-25 05:00:00 19.9 12 Este 13 Este 0 1006.4 -- 96
2020-06-25 04:00:00 20 11 Este 13 Norte 0 1006.9 -- 95
2020-06-25 03:00:00 20.2 12 Nordeste 13 Este 0 1007.1 -- 94
2020-06-25 02:00:00 20.5 13 Nordeste 13 Este 0 1007.1 -- 92
2020-06-25 01:00:00 20.6 11 Este 13 Este 0 1007.5 -- 88
2020-06-25 00:00:00 21.1 11 Este 17 Este 0 1007.9 -- 83
2020-06-24 23:00:00 21.7 14 Nordeste 18 Este 0 1007.8 -- 76
2020-06-24 22:00:00 22.3 13 Nordeste 15 Nordeste 0 1007.5 -- 69
2020-06-24 21:00:00 24.4 11 Este 18 Este 0 1007.2 -- 54
2020-06-24 20:00:00 26.8 15 Nordeste 22 Este 0 1006.8 -- 41
2020-06-24 19:00:00 28 16 Este 22 Este 0 1007.1 -- 33
2020-06-24 18:00:00 28.7 15 Este 26 Este 0 1007.5 -- 34
2020-06-24 17:00:00 28.5 13 Este 24 Este 0 1007.6 -- 47
2020-06-24 16:00:00 29.4 14 Este 22 Este 0 1007.7 -- 37
2020-06-24 15:00:00 29.5 15 Este 26 Sudeste 0 1007.5 -- 32
2020-06-24 14:00:00 29.6 15 Este 24 Nordeste 0 1007.3 -- 32
2020-06-24 13:00:00 28.6 13 Este 24 Norte 0 1007.5 -- 40
2020-06-24 12:00:00 28 13 Este 24 Este 0 1007.5 -- 45
2020-06-24 11:00:00 26.8 15 Este 26 Este 0 1007.2 -- 49
2020-06-24 10:00:00 25.3 22 Este 35 Este 0 1007.2 -- 58
2020-06-24 09:00:00 24 19 Este 24 Nordeste 0 1007.3 -- 67
2020-06-24 08:00:00 22.5 15 Nordeste 21 Nordeste 0 1007.4 -- 81
2020-06-24 07:00:00 19.7 13 Nordeste 17 Norte 0 1007.2 -- 91
2020-06-24 06:00:00 18.4 13 Norte 15 Norte 0 1007.5 -- 93
2020-06-24 05:00:00 18.4 13 Norte 15 Norte 0 1007.4 -- 91
2020-06-24 04:00:00 20.2 13 Nordeste 15 Nordeste 0 1007.6 -- 82
2020-06-24 03:00:00 20.3 9 Nordeste 13 Nordeste 0 1007.8 -- 79
2020-06-24 02:00:00 20.8 11 Nordeste 13 Nordeste 0 1007.7 -- 77
2020-06-24 01:00:00 20.4 10 Nordeste 13 Nordeste 0 1008.2 -- 78
2020-06-24 00:00:00 20.8 -- -- -- -- 0 1008.1 -- 82
2020-06-23 23:00:00 21.2 11 Nordeste 21 Este 0 1008.1 -- 81
2020-06-23 22:00:00 22.1 14 Este 17 Nordeste 0 1007.5 -- 78
2020-06-23 21:00:00 23.6 11 Nordeste 18 Nordeste 0 1007.5 -- 68
2020-06-23 20:00:00 25.6 14 Nordeste 22 Nordeste 0 1007.6 -- 61
2020-06-23 19:00:00 27.4 17 Nordeste 26 Nordeste 0 1007.5 -- 47
2020-06-23 18:00:00 28.5 15 Nordeste 22 Nordeste 0 1007.6 -- 44
2020-06-23 17:00:00 28.2 9 Sur 24 Sudoeste 0 1007.9 -- 50
2020-06-23 16:00:00 27.3 14 Sudoeste 26 Sudoeste 0 1008.4 -- 55
2020-06-23 15:00:00 27 17 Sudoeste 28 Sudoeste 0 1008.6 -- 57
2020-06-23 14:00:00 27.1 16 Sudoeste 26 Sur 0 1009 -- 56
2020-06-23 13:00:00 29.2 6 Nordeste 24 Nordeste 0 1009.2 -- 41
2020-06-23 12:00:00 28 15 Nordeste 26 Nordeste 0 1009.5 -- 44
2020-06-23 11:00:00 27.4 17 Nordeste 30 Norte 0 1009.4 -- 43
2020-06-23 10:00:00 26.7 21 Norte 32 Nordeste 0 1009.4 -- 44
2020-06-23 09:00:00 25.4 19 Norte 28 Norte 0 1009.2 -- 56
2020-06-23 08:00:00 23.4 15 Norte 22 Norte 0 1008.9 -- 72
2020-06-23 07:00:00 21.4 11 Noroeste 18 Norte 0 1008.8 -- 87
2020-06-23 06:00:00 19.7 11 Noroeste 18 Noroeste 0 1008.7 -- 88
2020-06-23 05:00:00 19.9 10 Noroeste 18 Noroeste 0 1008.8 -- 87
2020-06-23 04:00:00 19.5 10 Noroeste 21 Noroeste 0 1008.9 -- 82
2020-06-23 03:00:00 20.5 11 Noroeste 22 Norte 0 1009.3 -- 76
2020-06-23 02:00:00 20.1 12 Noroeste 18 Oeste 0 1009.5 -- 72
2020-06-23 01:00:00 20.4 10 Noroeste 18 Norte 0 1009.9 -- 70
2020-06-23 00:00:00 20.5 12 Norte 21 Norte 0 1010.2 -- 71
2020-06-22 23:00:00 21.1 11 Norte 21 Norte 0 1010.2 -- 73
2020-06-22 22:00:00 21.7 15 Norte 26 Norte 0 1009.6 -- 72
2020-06-22 21:00:00 22.9 22 Norte 37 Norte 0 1009.4 -- 64
2020-06-22 20:00:00 25 26 Norte 39 Norte 0 1009.3 -- 52
2020-06-22 19:00:00 25.8 30 Norte 46 Norte 0 1009.2 -- 48
2020-06-22 18:00:00 26 35 Norte 48 Norte 0 1009.5 -- 48
2020-06-22 17:00:00 26.2 40 Norte 55 Norte 0 1010.1 -- 47
2020-06-22 16:00:00 26.8 39 Norte 63 Norte 0 1010.5 -- 46
2020-06-22 15:00:00 26.9 44 Norte 61 Norte 0 1010.8 -- 44
2020-06-22 14:00:00 26.3 42 Norte 65 Norte 0 1011.1 -- 49
2020-06-22 13:00:00 26.1 53 Norte 78 Norte 0 1011 -- 49
2020-06-22 12:00:00 25.6 54 Norte 87 Norte 0 1011 -- 51
2020-06-22 11:00:00 25.1 55 Norte 76 Norte 0 1010.9 -- 53
2020-06-22 10:00:00 24.4 48 Norte 63 Norte 0 1011 -- 57
2020-06-22 09:00:00 24.2 44 Norte 59 Norte 0 1010.9 -- 60
2020-06-22 08:00:00 22.9 23 Norte 41 Norte 0 1010.8 -- 66
2020-06-22 07:00:00 21.3 22 Norte 37 Norte 0 1010.9 -- 73
2020-06-22 06:00:00 19.2 12 Noroeste 21 Norte 0 1010.8 -- 86
2020-06-22 05:00:00 20 5 Noroeste 11 Norte 0 1010.8 -- 80
2020-06-22 04:00:00 21.2 11 Norte 24 Norte 0 1010.8 -- 73
2020-06-22 03:00:00 20.1 8 Noroeste -- -- -- 1011.1 -- 69
2020-06-22 02:00:00 19.6 7 Noroeste 13 Oeste 0 1011.5 -- 81
2020-06-22 01:00:00 20 9 Oeste 15 Noroeste 0 1011.6 -- 81
2020-06-22 00:00:00 19.9 10 Oeste 13 Noroeste 0 1011.4 -- 77
2020-06-21 23:00:00 20.3 9 Oeste -- -- 0 1011.2 -- 73
2020-06-21 22:00:00 21.6 5 Noroeste 9 Oeste 0 1010.9 -- 68
2020-06-21 21:00:00 24 7 Oeste 21 Sudoeste 0 1010.4 -- 61
2020-06-21 20:00:00 25 14 Oeste 22 Sudoeste 0 1010 -- 59
2020-06-21 19:00:00 25.6 14 Sudoeste 26 Sur 0 1009.9 -- 59
2020-06-21 18:00:00 25.6 20 Sur 33 Sudoeste 0 1010.1 -- 64
2020-06-21 17:00:00 26.9 22 Sur 30 Sur 0 1010.3 -- 56
2020-06-21 16:00:00 28 9 Este 37 Norte 0 1010.5 -- 44
2020-06-21 15:00:00 27.6 22 Norte 41 Norte 0 1010.8 -- 44
2020-06-21 14:00:00 27.2 25 Norte 42 Norte 0 1011.2 -- 45
2020-06-21 13:00:00 26.9 28 Norte 41 Norte 0 1011.5 -- 46
2020-06-21 12:00:00 26.8 26 Norte 41 Norte 0 1011.6 -- 46
2020-06-21 11:00:00 26.9 24 Norte 39 Norte 0 1011.3 -- 41
2020-06-21 10:00:00 26.1 20 Norte 35 Norte 0 1011 -- 44
2020-06-21 09:00:00 24.9 18 Norte 26 Norte 0 1010.7 -- 53
2020-06-21 08:00:00 22.3 12 Norte 18 Norte 0 1010.6 -- 79
2020-06-21 07:00:00 19.6 8 Noroeste 13 Noroeste 0 1010.4 -- 94
2020-06-21 06:00:00 18.7 10 Noroeste 15 Norte 0 1010.2 -- 94
2020-06-21 05:00:00 18.1 13 Norte 15 Norte 0 1010.2 -- 93
2020-06-21 04:00:00 17.9 8 Norte 11 Norte 0 1010.3 -- 94
2020-06-21 03:00:00 17.6 3 Noroeste -- -- -- 1010.5 -- 93
2020-06-21 02:00:00 18.2 0 Calma 8 Oeste 0 1010.9 -- 92
2020-06-21 01:00:00 18.1 6 Sudoeste 8 Oeste 0 1011.3 -- 90
2020-06-21 00:00:00 19.2 5 Oeste 9 Sudoeste 0 1011.4 -- 90
2020-06-20 23:00:00 20.2 7 Sudoeste 9 Sudoeste 0 1011.2 -- 88
2020-06-20 22:00:00 20.9 8 Sudoeste 13 Sudoeste 0 1010.8 -- 86
2020-06-20 21:00:00 22.2 11 Sudoeste 18 Sudoeste 0 1010.4 -- 82
2020-06-20 20:00:00 23.4 14 Sudoeste 26 Sudoeste 0 1010.4 -- 74
2020-06-20 19:00:00 24.4 18 Sudoeste 26 Sudoeste 0 1010.5 -- 69
2020-06-20 18:00:00 24.8 18 Sudoeste 28 Oeste 0 1010.7 -- 69
2020-06-20 17:00:00 25.1 16 Sudoeste 30 Oeste 0 1011.1 -- 69
2020-06-20 16:00:00 25.4 15 Sudoeste 28 Sur 0 1011.5 -- 67
2020-06-20 15:00:00 24.6 15 Sur 30 Sudoeste 0 1011.7 -- 72
2020-06-20 14:00:00 24.4 14 Sudoeste 21 Sudoeste 0 1011.9 -- 69
2020-06-20 13:00:00 23.7 9 Sur 18 Sur 0 1011.9 -- 74
2020-06-20 12:00:00 23.1 14 Sur 26 Sur 0 1011.8 -- 77
2020-06-20 11:00:00 24.9 10 Sudoeste 26 Norte 0 1011.5 -- 66
2020-06-20 10:00:00 24.7 12 Norte 22 Norte 0 1011.3 -- 61
2020-06-20 09:00:00 23.5 14 Norte 24 Norte 0 1011.2 -- 70
2020-06-20 08:00:00 22 12 Noroeste 21 Noroeste 0 1010.8 -- 81
2020-06-20 07:00:00 19.7 10 Noroeste 18 Noroeste 0 1010.7 -- 90
2020-06-20 06:00:00 18.6 7 Noroeste 18 Noroeste 0 1010.5 -- 92
2020-06-20 05:00:00 18.8 10 Noroeste 17 Noroeste 0 1010.3 -- 92
2020-06-20 04:00:00 18.2 8 Noroeste 13 Norte 0 1010.4 -- 89
2020-06-20 03:00:00 17.7 10 Oeste -- -- -- 1010.5 -- 87
2020-06-20 02:00:00 17.3 9 Oeste 11 Oeste 0 1010.8 -- 84
2020-06-20 01:00:00 17.1 9 Oeste -- -- 0 1011.2 -- 83
2020-06-20 00:00:00 17.3 6 Oeste 9 Sudoeste 0 1010.9 -- 80
2020-06-19 23:00:00 18.4 5 Sudoeste 9 Sudoeste 0 1010.8 -- 74
2020-06-19 22:00:00 19.4 6 Sudoeste 11 Sudoeste 0 1010.2 -- 65
2020-06-19 21:00:00 22.6 0 Calma 11 Este 0 1009.3 -- 45
2020-06-19 20:00:00 23.3 8 Nordeste 21 Este 0 1008.9 -- 49
2020-06-19 19:00:00 23.8 13 Nordeste 22 Norte 0 1008.6 -- 48
2020-06-19 18:00:00 24.3 15 Nordeste 30 Nordeste 0 1008.6 -- 44
2020-06-19 17:00:00 24.6 19 Nordeste 33 Nordeste 0 1008.6 -- 44
2020-06-19 16:00:00 23.8 26 Nordeste 35 Nordeste 0 1008.4 -- 46
2020-06-19 15:00:00 22.8 27 Nordeste 37 Nordeste 0 1008.6 -- 53
2020-06-19 14:00:00 22.5 25 Nordeste 35 Este 0 1008.8 -- 55
2020-06-19 13:00:00 20.4 17 Nordeste 26 Norte 0.3 1009.4 -- 76
2020-06-19 12:00:00 20.2 21 Norte 32 Norte 0 1009 -- 74
2020-06-19 11:00:00 21.7 22 Nordeste 35 Norte 0 1008.5 -- 63
2020-06-19 10:00:00 21.3 26 Nordeste 33 Norte 0 1008.1 -- 63
2020-06-19 09:00:00 20.2 23 Norte 32 Norte 0 1007.5 -- 80
2020-06-19 08:00:00 20.2 26 Norte 35 Norte 0 1006.8 -- 84
2020-06-19 07:00:00 20.1 18 Nordeste 28 Nordeste 0 1006.8 -- 86
2020-06-19 06:00:00 19.3 18 Nordeste 28 Norte 0 1006.5 -- 90
2020-06-19 05:00:00 18.7 22 Norte 26 Norte 0 1005.9 -- 89
2020-06-19 04:00:00 19.1 6 Nordeste 24 Norte 0 1006.5 -- 87
2020-06-19 03:00:00 19.2 19 Norte -- -- -- 1005.7 -- 84
2020-06-19 02:00:00 19.9 14 Norte 18 Norte 0 1006.3 -- 81
2020-06-19 01:00:00 19 6 Norte 13 Norte 0 1007.3 -- 82
2020-06-19 00:00:00 19.3 7 Norte 13 Norte 0 1006.6 -- 80
2020-06-18 23:00:00 20.2 6 Este 15 Nordeste 0 1005.8 -- 75
2020-06-18 22:00:00 20.3 6 Este 11 Sudeste 0 1005.2 -- 74
2020-06-18 21:00:00 21.7 12 Sudeste 21 Sudeste 0 1005.1 -- 69
2020-06-18 20:00:00 22.8 16 Sudeste 24 Sudeste 0 1004.7 -- 67
2020-06-18 19:00:00 23.8 16 Este 28 Este 0 1004.2 -- 62
2020-06-18 18:00:00 24.4 18 Este 30 Este 0 1004.5 -- 56
2020-06-18 17:00:00 24.1 19 Este 33 Nordeste 0 1004.9 -- 60
2020-06-18 16:00:00 23 24 Nordeste 39 Nordeste 0 1005.3 -- 64
2020-06-18 15:00:00 22.3 30 Norte 46 Norte 0 1005.6 -- 66
2020-06-18 14:00:00 24.7 16 Sudoeste 26 Sudoeste 0 1005.6 -- 58
2020-06-18 13:00:00 24 15 Sur 30 Sur 0 1005.7 -- 69
2020-06-18 12:00:00 23.9 18 Sur 32 Sur 0 1005.1 -- 68
2020-06-18 11:00:00 23.6 21 Sudeste 28 Sur 0 1004.6 -- 69
2020-06-18 10:00:00 22.7 14 Sudeste 24 Sur 0 1004.3 -- 73
2020-06-18 09:00:00 22.1 14 Sudeste 22 Sudeste 0 1004.2 -- 80
2020-06-18 08:00:00 21.7 13 Sur 21 Sur 0 1004.2 -- 84
2020-06-18 07:00:00 20 12 Sudeste 17 Sudeste 0 1004 -- 92
2020-06-18 06:00:00 20.1 10 Sudeste 21 Sudeste 0 1004.1 -- 91
2020-06-18 05:00:00 20.3 12 Sudeste 15 Sudeste 0 1004.2 -- 90
2020-06-18 04:00:00 20.1 9 Sudeste 17 Sudeste 0 1004.8 -- 89
2020-06-18 03:00:00 20.4 10 Sur -- -- -- 1005.4 -- 87
2020-06-18 02:00:00 20.2 12 Sur 18 Sur 0 1005.9 -- 86
2020-06-18 01:00:00 19.5 10 Sur 13 Sur 0 1006.3 -- 85
2020-06-18 00:00:00 19.5 10 Sudeste 13 Sudeste 0 1006.6 -- 83
2020-06-17 23:00:00 19.7 9 Sudeste 15 Sudeste 0 1006.3 -- 79
2020-06-17 22:00:00 19.8 10 Sudeste 18 Sudeste 0 1005.7 -- 73
2020-06-17 21:00:00 20.9 14 Sudeste 21 Sudeste 0 1005.3 -- 68
2020-06-17 20:00:00 22.5 12 Sudeste 22 Sudeste 0 1005.3 -- 59
2020-06-17 19:00:00 23.2 14 Sudeste 28 Este 0 1005.1 -- 55
2020-06-17 18:00:00 22.9 19 Este 30 Este 0 1005.3 -- 54
2020-06-17 17:00:00 23.6 19 Este 33 Este 0 1005.8 -- 51
2020-06-17 16:00:00 24.3 18 Este 35 Este 0 1005.8 -- 49
2020-06-17 15:00:00 24.5 21 Este 33 Este 0 1005.8 -- 48
2020-06-17 14:00:00 23.4 16 Este 32 Nordeste 0 1006.1 -- 51
2020-06-17 13:00:00 24 21 Nordeste 32 Este 0 1006.6 -- 50
2020-06-17 12:00:00 23.9 21 Nordeste 35 Este 0 1006.4 -- 51
2020-06-17 11:00:00 23.2 23 Nordeste 35 Nordeste 0 1006.4 -- 50
2020-06-17 10:00:00 22.9 22 Nordeste 33 Este 0 1006.2 -- 54
2020-06-17 09:00:00 22.2 21 Este 32 Este 0 1006 -- 55
2020-06-17 08:00:00 21.1 18 Nordeste 26 Nordeste 0 1005.6 -- 69
2020-06-17 07:00:00 18.6 10 Nordeste 17 Nordeste 0 1005.3 -- 83
2020-06-17 06:00:00 17.3 10 Norte 13 Norte 0 1005.4 -- 87
2020-06-17 05:00:00 18.3 7 Nordeste 13 Norte 0 1005.3 -- 87
2020-06-17 04:00:00 18.4 11 Norte 15 Norte 0 1005.5 -- 88
2020-06-17 03:00:00 19.2 9 Norte -- -- -- 1005.5 -- 86
2020-06-17 02:00:00 19.6 6 Norte 9 Norte 0 1005.6 -- 82
2020-06-17 01:00:00 20.1 2 Este 9 Nordeste 0 1006.3 -- 80
2020-06-17 00:00:00 20.3 5 Este 9 Este 0 1006.2 -- 79
2020-06-16 23:00:00 19.9 2 Nordeste 11 Nordeste 0 1005.9 -- 80
2020-06-16 22:00:00 20.6 8 Este 11 Este 0 1005.1 -- 78
2020-06-16 21:00:00 21.2 9 Este 17 Este 0 1004.9 -- 75
2020-06-16 20:00:00 21.8 12 Este 17 Este 0 1004.6 -- 71
2020-06-16 19:00:00 23.1 11 Sudeste 22 Este 0 1004.7 -- 65
2020-06-16 18:00:00 23.7 13 Sur 21 Sudoeste 0 1005.2 -- 60
2020-06-16 17:00:00 23.6 10 Sur 26 Sur 0 1005.4 -- 60
2020-06-16 16:00:00 24.8 14 Sur 32 Sur 0 1005.6 -- 57
2020-06-16 15:00:00 25.9 17 Sur 28 Sur 0 1005.9 -- 50
2020-06-16 14:00:00 25.5 12 Sudeste 30 Sudeste 0 -- -- 46
2020-06-16 13:00:00 25.6 15 Este 26 Este 0 1007 -- 46
2020-06-16 12:00:00 25.6 15 Este 28 Este 0 -- -- 46
2020-06-16 11:00:00 24.6 9 Norte 18 Este 0 1007.7 -- 49
2020-06-16 10:00:00 23.4 13 Nordeste 26 Nordeste 0 1007.7 -- 56
2020-06-16 09:00:00 21.6 19 Nordeste 32 Este 0 1007.3 -- 71
2020-06-16 08:00:00 20.4 12 Nordeste 22 Este 0 1007.3 -- 92
2020-06-16 07:00:00 19.1 10 Nordeste 13 Nordeste 0 1007.4 -- 96
2020-06-16 06:00:00 17.1 6 Nordeste 9 Norte 0 1007.6 -- 96
2020-06-16 05:00:00 17.2 5 Norte 9 Nordeste 0 1007.7 -- 95
2020-06-16 04:00:00 17.1 7 Nordeste 8 Nordeste 0 1007.7 -- 95
2020-06-16 03:00:00 17.3 4 Nordeste 9 Norte 0 1008 -- 95
2020-06-16 02:00:00 17.7 0 Calma 8 Norte 0 1008.5 -- 93
2020-06-16 01:00:00 18.5 0 Calma 8 Sudoeste 0 1008.8 -- 92
2020-06-16 00:00:00 19.3 4 Sudoeste 11 Sudoeste 0 1008.7 -- 92
2020-06-15 23:00:00 19.7 4 Sur 13 Sudoeste 0 1008.7 -- 90
2020-06-15 22:00:00 20 9 Sudoeste 13 Sudoeste 0 1008.6 -- 88
2020-06-15 21:00:00 21.1 10 Sudoeste 21 Sudoeste 0 1008.3 -- 82
2020-06-15 20:00:00 22.6 17 Sudoeste 24 Sudoeste 0 1008.4 -- 74
2020-06-15 19:00:00 23.2 16 Sudoeste 26 Sur 0 1008.3 -- 70
2020-06-15 18:00:00 24.1 13 Sudoeste 26 Sur 0 1008.6 -- 62
2020-06-15 17:00:00 24.1 15 Sudoeste 24 Sudoeste 0 1008.8 -- 63
2020-06-15 16:00:00 24.7 16 Sudoeste 28 Sudoeste 0 1009.2 -- 58
2020-06-15 15:00:00 24.4 15 Sudoeste 26 Sudoeste 0 1009.6 -- 62
2020-06-15 14:00:00 24.6 16 Sudoeste 28 Sudoeste 0 1009.8 -- 59
2020-06-15 13:00:00 24.4 13 Sudoeste 26 Sur 0 1010.1 -- 53
2020-06-15 12:00:00 23.9 15 Sudoeste 24 Sudoeste 0 1010.4 -- 59
2020-06-15 11:00:00 23.3 14 Sudoeste 22 Sudoeste 0 1010.2 -- 64
2020-06-15 10:00:00 23.7 8 Sudoeste 17 Nordeste 0 1009.9 -- 64
2020-06-15 09:00:00 23.1 10 Norte 17 Norte 0 1009.7 -- 60
2020-06-15 08:00:00 21.1 4 Sudoeste 8 Sudoeste 0 1009.6 -- 74
2020-06-15 07:00:00 16.7 3 Oeste 9 Noroeste 0 1009.4 -- 87
2020-06-15 06:00:00 15.9 8 Noroeste 11 Noroeste 0 1009.3 -- 89
2020-06-15 05:00:00 16.5 9 Noroeste 11 Noroeste 0 1008.9 -- 92
2020-06-15 04:00:00 17.6 9 Oeste 11 Oeste 0 1008.8 -- 89
2020-06-15 03:00:00 18.3 10 Oeste 15 Oeste 0 1008.9 -- 84
2020-06-15 02:00:00 19 11 Oeste 21 Sudoeste 0 1009 -- 82
2020-06-15 01:00:00 19.6 13 Sudoeste 22 Sudoeste 0 1009 -- 84
2020-06-15 00:00:00 19.9 14 Sudoeste 26 Sudoeste 0 1008.9 -- 83
2020-06-14 23:00:00 20.1 18 Sudoeste 32 Sudoeste 0 1009 -- 78
2020-06-14 22:00:00 20.2 14 Sudoeste 26 Sudoeste 0 1008.7 -- 77
2020-06-14 21:00:00 21.3 14 Sudoeste 26 Sudoeste 0 1008.4 -- 72
2020-06-14 20:00:00 23 18 Sudoeste 26 Sudoeste 0 1008 -- 63
2020-06-14 19:00:00 23.4 14 Sudoeste 22 Sudoeste 0 1007.9 -- 61
2020-06-14 18:00:00 22.3 13 Sudoeste 22 Sudoeste 0 1008 -- 71
2020-06-14 17:00:00 22.6 15 Sudoeste 22 Sudoeste 0 1008.3 -- 68
2020-06-14 16:00:00 23.5 11 Sudoeste 24 Sur 0 1008.6 -- 62
2020-06-14 15:00:00 24.4 17 Sur 28 Sudoeste 0 1008.8 -- 56
2020-06-14 14:00:00 23.9 14 Sur 26 Sur 0 1009.1 -- 53
2020-06-14 13:00:00 24.1 21 Sur 30 Sur 0 1008.9 -- 52
2020-06-14 12:00:00 22.9 10 Sudoeste 21 Sudoeste 0 1008.5 -- 59
2020-06-14 11:00:00 24.8 6 Norte 21 Norte 0 1008.4 -- 51
2020-06-14 10:00:00 23.4 12 Nordeste 22 Nordeste 0 1008.3 -- 53
2020-06-14 09:00:00 22 15 Nordeste 24 Nordeste 0 1007.8 -- 61
2020-06-14 08:00:00 20.9 10 Norte 18 Norte 0 1007.2 -- 77
2020-06-14 07:00:00 17.4 9 Noroeste 13 Norte 0 1007.1 -- 83
2020-06-14 06:00:00 16 8 Noroeste 13 Oeste 0 1007.1 -- 88
2020-06-14 05:00:00 14.8 7 Oeste 11 Oeste 0 1007 -- 86
2020-06-14 04:00:00 14.7 9 Oeste 11 Oeste 0 1007.3 -- 81
2020-06-14 03:00:00 15.6 4 Noroeste 9 Noroeste 0 1007.3 -- 74
2020-06-14 02:00:00 15.1 5 Noroeste 9 Norte 0 1007.7 -- 74
2020-06-14 01:00:00 15.4 5 Noroeste 8 Norte 0 1007.7 -- 72
2020-06-14 00:00:00 16 7 Norte 9 Noroeste 0 1007.4 -- 73
2020-06-13 23:00:00 17.9 0 Calma 5 Sur 0 1007 -- 70
2020-06-13 22:00:00 19.8 3 Sudoeste 11 Sudeste 0 1006.2 -- 59
2020-06-13 21:00:00 23.3 5 Oeste 17 Noroeste 0 1005.4 -- 37
2020-06-13 20:00:00 24.8 14 Oeste 30 Oeste 0 1004.8 -- 37
2020-06-13 19:00:00 24.6 21 Oeste 32 Oeste 0 1004 -- 42
2020-06-13 18:00:00 25.5 21 Oeste 32 Oeste 0 1003.5 -- 40
2020-06-13 17:00:00 26.5 20 Oeste 30 Sudoeste 0 1003.4 -- 37
2020-06-13 16:00:00 26.8 22 Oeste 32 Oeste 0 1003.2 -- 35
2020-06-13 15:00:00 26.8 20 Oeste 35 Sudoeste 0 1003.1 -- 39
2020-06-13 14:00:00 25.6 24 Oeste 35 Sudoeste 0 1003 -- 45
2020-06-13 13:00:00 24.9 18 Oeste 30 Sudoeste 0 1002.3 -- 58
2020-06-13 12:00:00 23.9 16 Sudoeste 28 Oeste 0 1001.6 -- 63
2020-06-13 11:00:00 23.5 18 Sudoeste 30 Sudoeste 0 1001.4 -- 67
2020-06-13 10:00:00 22.7 19 Oeste 35 Sudoeste 0 1000.6 -- 73
2020-06-13 09:00:00 21.9 24 Oeste 33 Oeste 0 1000.6 -- 77
2020-06-13 08:00:00 20.6 21 Sudoeste 30 Sudoeste 0 1000 -- 83
2020-06-13 07:00:00 19.7 17 Sudoeste 28 Sudoeste 0 1000.4 -- 84
2020-06-13 06:00:00 19.4 15 Sur 30 Sur 0 999.7 -- 85
2020-06-13 05:00:00 19.6 17 Sur 30 Sudoeste 0 999.6 -- 86
2020-06-13 04:00:00 19.2 16 Sur 30 Sudoeste 0 999.3 -- 86
2020-06-13 03:00:00 19.4 18 Sudoeste 30 Sudoeste 0 999.8 -- 85
2020-06-13 02:00:00 19.7 20 Sudoeste 30 Sur 0 1000.2 -- 84
2020-06-13 01:00:00 19.9 20 Sudoeste 28 Sudoeste 0 1000.3 -- 87
2020-06-13 00:00:00 19.3 9 Sudoeste 17 Oeste 0 999.9 -- 89
2020-06-12 23:00:00 19.7 10 Sudoeste 21 Oeste 0 999.3 -- 86
2020-06-12 22:00:00 20.3 13 Sudoeste 22 Sudoeste 0 999 -- 86
2020-06-12 21:00:00 20.7 11 Sudoeste 30 Sudoeste 0 998.6 -- 86
2020-06-12 20:00:00 21.1 16 Sudoeste 30 Sudoeste 0 998.2 -- 85
2020-06-12 19:00:00 22.7 20 Sudoeste 33 Sudoeste 0 997.8 -- 80
2020-06-12 18:00:00 23.6 22 Sudoeste 33 Sur 0 997.5 -- 73
2020-06-12 17:00:00 23.8 23 Sudoeste 39 Sudoeste 0 997.5 -- 75
2020-06-12 16:00:00 23.9 25 Sur 42 Sur 0 997.5 -- 74
2020-06-12 15:00:00 24.3 32 Sur 46 Sudoeste 0 997.2 -- 73
2020-06-12 14:00:00 23.5 33 Sudoeste 48 Sudoeste 0 997.2 -- 76
2020-06-12 13:00:00 23.8 33 Sudoeste 50 Sudoeste 0 996.9 -- 76
2020-06-12 12:00:00 24 32 Sudoeste 46 Sudoeste 0 996.5 -- 75
2020-06-12 11:00:00 23.4 26 Sudoeste 39 Sudoeste 0 996 -- 78
2020-06-12 10:00:00 23 26 Sudoeste 41 Sur 0 995.9 -- 77
2020-06-12 09:00:00 21.6 28 Sudoeste 42 Sur 0 995.5 -- 80
2020-06-12 08:00:00 21 26 Sudoeste 45 Sudoeste 0 995 -- 80
2020-06-12 07:00:00 20.3 27 Sudoeste 45 Sur 0 994.6 -- 82
2020-06-12 06:00:00 20.1 31 Sudoeste 48 Sudoeste 0 994.8 -- 81
2020-06-12 05:00:00 20.1 31 Sudoeste 52 Sudoeste 0 994.8 -- 80
2020-06-12 04:00:00 20.3 31 Sudoeste 48 Sudoeste 0 994.8 -- 80
2020-06-12 03:00:00 20.2 34 Sur 52 Sur 0 995.2 -- 80
2020-06-12 02:00:00 20.2 29 Sur 45 Sur 0 995.7 -- 80
2020-06-12 01:00:00 20 27 Sur 41 Sur 0 996.1 -- 81
2020-06-12 00:00:00 20.2 26 Sur 37 Sur 0 996.3 -- 84
2020-06-11 23:00:00 20.3 23 Sur 33 Sur 0 996.6 -- 86
2020-06-11 22:00:00 20.1 20 Sur 33 Sur 0 996.2 -- 84
2020-06-11 21:00:00 20.7 22 Sur 39 Sur 0 996.1 -- 78
2020-06-11 20:00:00 22.2 28 Sur 39 Sur 0 996.3 -- 67
2020-06-11 19:00:00 23.1 28 Sur 39 Sur 0 996.7 -- 67
2020-06-11 18:00:00 24.4 28 Sur 41 Sur 0 997.1 -- 64
2020-06-11 17:00:00 24.2 28 Sur 39 Sur 0 997.8 -- 65
2020-06-11 16:00:00 24.3 30 Sur 41 Sur 0 998.4 -- 66
2020-06-11 15:00:00 23.6 29 Sur 39 Sur 0 998.8 -- 68
2020-06-11 14:00:00 23.7 30 Sur 41 Sur 0 999.5 -- 67
2020-06-11 13:00:00 23.5 27 Sur 35 Sur 0 999.6 -- 68
2020-06-11 12:00:00 21.8 23 Sudoeste 35 Sudoeste 0 1000.1 -- 73
2020-06-11 11:00:00 21.5 23 Sur 32 Sudoeste 0 1000.1 -- 75
2020-06-11 10:00:00 19.6 15 Sudoeste 30 Sudoeste 0.1 1000.9 -- 87
2020-06-11 09:00:00 19.7 17 Sudoeste 28 Sudoeste 0 1000.9 -- 84
2020-06-11 08:00:00 19.2 18 Sudoeste 24 Sudoeste 0 1001 -- 88
2020-06-11 07:00:00 18.9 12 Sudoeste 17 Sudoeste 0 1001.2 -- 91
2020-06-11 06:00:00 18.1 9 Sudoeste 17 Sur 0 1001.4 -- 93
2020-06-11 05:00:00 18.6 12 Sur 21 Sur 0 1000.9 -- 88
2020-06-11 04:00:00 18.4 9 Oeste 13 Oeste 0 1002.7 -- 88
2020-06-11 03:00:00 18.4 9 Oeste 15 Sudoeste 0 1003 -- 87
2020-06-11 02:00:00 18.2 6 Sudoeste 9 Oeste 0 1003.2 -- 85
2020-06-11 01:00:00 19.1 3 Noroeste 18 Sudoeste 0 1003.8 -- 82
2020-06-11 00:00:00 18.7 2 Sudoeste 13 Oeste 0 1003.9 -- 84
2020-06-10 23:00:00 17.2 6 Sudoeste 11 Sudoeste 0 1004.4 -- 83
2020-06-10 22:00:00 18 10 Sudoeste 13 Sudoeste 0 1004.1 -- 80
2020-06-10 21:00:00 19.3 10 Sudoeste 21 Sudoeste 0 1004.1 -- 73
2020-06-10 20:00:00 21.3 15 Sudoeste 26 Sudoeste 0 1003.9 -- 60
2020-06-10 19:00:00 22 16 Sudoeste 30 Sur 0 1004.2 -- 50
2020-06-10 18:00:00 22.6 21 Sur 30 Sudoeste 0 1004.3 -- 54
2020-06-10 17:00:00 22.3 21 Sudoeste 32 Sudoeste 0 1004.7 -- 57
2020-06-10 16:00:00 23.2 19 Sur 30 Sur 0 1005 -- 53
2020-06-10 15:00:00 22.6 18 Sur 30 Sur 0 1005.5 -- 56
2020-06-10 14:00:00 22 20 Sur 28 Sudeste 0 1006.1 -- 60
2020-06-10 13:00:00 21.5 16 Este 30 Norte 0 1006.3 -- 54
2020-06-10 12:00:00 19.9 9 Este 22 Sudeste 0 1006.6 -- 66
2020-06-10 11:00:00 20.4 7 Sur 15 Sudeste 0 1006.3 -- 64
2020-06-10 10:00:00 21.9 8 Noroeste 21 Norte 0 1006.2 -- 56
2020-06-10 09:00:00 20.4 13 Norte 18 Norte 0 1006.3 -- 68
2020-06-10 08:00:00 17.2 6 Noroeste 13 Norte 0 1005.9 -- 82
2020-06-10 07:00:00 15.3 9 Noroeste 13 Norte 0 1005.8 -- 85
2020-06-10 06:00:00 15.2 9 Noroeste 11 Noroeste 0 1005.6 -- 84
2020-06-10 05:00:00 15 11 Noroeste 13 Noroeste 0 1005.8 -- 84
2020-06-10 04:00:00 14.3 9 Noroeste -- -- 0 1006.1 -- 85
2020-06-10 03:00:00 14.5 8 Noroeste 13 Noroeste 0 1006.2 -- 85
2020-06-10 02:00:00 14.4 8 Noroeste 11 Noroeste 0 1006.4 -- 86
2020-06-10 01:00:00 15.3 8 Noroeste 13 Noroeste 0 1006.9 -- 84
2020-06-10 00:00:00 15.1 9 Noroeste 11 Noroeste 0 1006.8 -- 84
2020-06-09 23:00:00 15.6 8 Noroeste 13 Noroeste 0 1006.7 -- 86
2020-06-09 22:00:00 16.1 0 Calma 11 Oeste 0 1006.1 -- 81
2020-06-09 21:00:00 18.6 9 Sudoeste 17 Oeste 0 1005.9 -- 71
2020-06-09 20:00:00 20.1 13 Sudoeste 21 Sudoeste 0 1005.6 -- 62
2020-06-09 19:00:00 20.7 15 Sudoeste 35 Sudoeste 0 1005.5 -- 55
2020-06-09 18:00:00 20.3 21 Sudoeste 35 Sudoeste 0 1005.8 -- 58
2020-06-09 17:00:00 19.6 18 Sudoeste 41 Sudoeste 0 1006 -- 67
2020-06-09 16:00:00 22 22 Sur 32 Sur 0 1005.8 -- 50
2020-06-09 15:00:00 22.7 18 Sur 32 Sur 0 1005.9 -- 48
2020-06-09 14:00:00 23 14 Sur 28 Sudoeste 0 1006.4 -- 44
2020-06-09 13:00:00 21.8 8 Sudoeste 15 Oeste 0 1006.5 -- 51
2020-06-09 12:00:00 20.4 6 Noroeste 18 Oeste 0 1006.5 -- 55
2020-06-09 11:00:00 21.4 13 Norte 22 Norte 0 1005.8 -- 53
2020-06-09 10:00:00 20 10 Oeste 17 Oeste 0 1005.8 -- 62
2020-06-09 09:00:00 19.5 8 Noroeste 17 Norte 0 1005.5 -- 67
2020-06-09 08:00:00 19.4 11 Norte 18 Norte 0 1005 -- 69
2020-06-09 07:00:00 15.2 12 Norte 15 Norte 0 1004.8 -- 81
2020-06-09 06:00:00 14 11 Norte 13 Noroeste 0 1004.8 -- 83
2020-06-09 05:00:00 14.1 12 Noroeste 13 Norte 0 1004.5 -- 83
2020-06-09 04:00:00 14.4 11 Noroeste 17 Noroeste 0 1004.4 -- 81
2020-06-09 03:00:00 14.4 -- -- -- -- 0 1004.5 -- 78
2020-06-09 02:00:00 14.7 10 Noroeste 13 Noroeste 0 1004.8 -- 79
2020-06-09 01:00:00 15.4 13 Norte -- -- 0 1004.6 -- 78
2020-06-09 00:00:00 17 8 Norte 11 Norte 0 1004.5 -- 73
2020-06-08 23:00:00 17.4 6 Norte 11 Norte 0 1004.5 -- 71
2020-06-08 22:00:00 17.5 8 Norte 15 Norte 0 1003.8 -- 73
2020-06-08 21:00:00 18.3 12 Norte 21 Norte 0 1003.4 -- 68
2020-06-08 20:00:00 18.7 13 Nordeste 24 Nordeste 0 1003.3 -- 63
2020-06-08 19:00:00 19.1 15 Nordeste 26 Nordeste 0 1003 -- 62
2020-06-08 18:00:00 20.2 16 Nordeste 32 Nordeste 0 1002.8 -- 59
2020-06-08 17:00:00 20.9 19 Nordeste 33 Nordeste 0 1002.7 -- 57
2020-06-08 16:00:00 20.6 20 Nordeste 33 Norte 0 1002.7 -- 60
2020-06-08 15:00:00 20.5 26 Nordeste 33 Norte 0 1003.1 -- 63
2020-06-08 14:00:00 20.2 21 Nordeste 33 Norte 0 1003 -- 62
2020-06-08 13:00:00 20.8 18 Norte 33 Norte 0 1002.8 -- 56
2020-06-08 12:00:00 21.3 19 Nordeste 32 Nordeste 0 1002.4 -- 56
2020-06-08 11:00:00 20.9 17 Norte 32 Norte 0 1002.2 -- 61
2020-06-08 10:00:00 20 22 Nordeste 37 Nordeste 0 1001.8 -- 64
2020-06-08 09:00:00 19 26 Nordeste 37 Nordeste 0 1001.5 -- 70
2020-06-08 08:00:00 18.1 27 Nordeste 37 Nordeste 0 1001.1 -- 75
2020-06-08 07:00:00 16.2 18 Nordeste 24 Norte 0 1000.8 -- 83
2020-06-08 06:00:00 15.5 16 Nordeste 24 Norte 0 1000.2 -- 85
2020-06-08 05:00:00 15.4 12 Norte 22 Norte 0 1000.1 -- 87
2020-06-08 04:00:00 16.1 15 Este 18 Este 0.8 999.5 -- 90
2020-06-08 03:00:00 16.2 9 Norte 21 Norte 0.9 1000.9 -- 86
2020-06-08 02:00:00 17 14 Norte 21 Norte 0 1001.2 -- 75
2020-06-08 01:00:00 17 14 Norte 24 Norte 0 1001.3 -- 79
2020-06-08 00:00:00 17.2 20 Norte 24 Nordeste 0 1001.1 -- 82
2020-06-07 23:00:00 17.4 19 Norte 28 Norte 0 1000.9 -- 84
2020-06-07 22:00:00 18.2 17 Norte 24 Norte 0 1000.6 -- 85
2020-06-07 21:00:00 18.2 17 Norte 39 Norte 0 1000.1 -- 84
2020-06-07 20:00:00 19.6 28 Norte 45 Norte 0 999.2 -- 79
2020-06-07 19:00:00 19.1 33 Norte 45 Norte 0 998.5 -- 88
2020-06-07 18:00:00 19.6 23 Nordeste 37 Nordeste 0.6 997.6 -- 94
2020-06-07 17:00:00 19.4 30 Norte 48 Nordeste 0.1 998.5 -- 88
2020-06-07 16:00:00 21.2 36 Norte 45 Norte 0 998.2 -- 81
2020-06-07 15:00:00 21 30 Norte 41 Norte 0.4 997.7 -- 88
2020-06-07 14:00:00 25.4 14 Sudoeste 24 Oeste 0 997.2 -- 62
2020-06-07 13:00:00 24.1 15 Sudoeste 22 Sudoeste 0 996.7 -- 69
2020-06-07 12:00:00 24 13 Nordeste 33 Nordeste 0 995.6 -- 61
2020-06-07 11:00:00 23.9 15 Norte 26 Norte 0 996.1 -- 65
2020-06-07 10:00:00 23.3 10 Noroeste 21 Noroeste 0 995.5 -- 75
2020-06-07 09:00:00 22.9 5 Sudeste 13 Norte 0 995 -- 76
2020-06-07 08:00:00 20.6 5 Noroeste 17 Sur 0 995.5 -- 91
2020-06-07 07:00:00 19.5 9 Sur 13 Sudoeste 0 995 -- 92
2020-06-07 06:00:00 19.7 12 Sudoeste 28 Sudoeste 0 995.5 -- 90
2020-06-07 05:00:00 20 18 Sudoeste 28 Sudoeste 0 995.8 -- 89
2020-06-07 04:00:00 20 17 Sudoeste 30 Sur 0 995.8 -- 89
2020-06-07 03:00:00 19.9 19 Sudoeste 35 Sur 0 995.9 -- 88
2020-06-07 02:00:00 20 23 Sur 35 Sur 0 996 -- 88
2020-06-07 01:00:00 20 25 Sur 32 Sur 0 996.7 -- 87
2020-06-07 00:00:00 20.2 23 Sur 32 Sur 0 996.8 -- 87
2020-06-06 23:00:00 20.2 18 Sudoeste 30 Sur 0 997.6 -- 86
2020-06-06 22:00:00 20.3 19 Sur 28 Sur 0 997.3 -- 87
2020-06-06 21:00:00 21.1 18 Sur 28 Sur 0 997.5 -- 82
2020-06-06 20:00:00 22.6 21 Sur 30 Sudoeste 0 997.8 -- 79
2020-06-06 19:00:00 22.3 23 Sudoeste 33 Sudoeste 0 998.2 -- 82
2020-06-06 18:00:00 23.7 26 Sur 35 Sudoeste 0 998.7 -- 75
2020-06-06 17:00:00 24 24 Sur 33 Sudoeste 0 999.7 -- 73
2020-06-06 16:00:00 24 24 Sudoeste 41 Sur 0 1000.3 -- 71
2020-06-06 15:00:00 23.4 26 Sudoeste 35 Sudoeste 0 1000.2 -- 73
2020-06-06 14:00:00 23.8 24 Sur 35 Sur 0 1000.8 -- 71
2020-06-06 13:00:00 23.4 24 Sur 37 Sudoeste 0 1001.3 -- 73
2020-06-06 12:00:00 22.9 27 Sudoeste 37 Sudoeste 0 1001.5 -- 74
2020-06-06 11:00:00 22.7 24 Sudoeste 35 Sudoeste 0 1001.7 -- 76
2020-06-06 10:00:00 22.4 22 Sur 32 Sudoeste 0 1001.8 -- 76
2020-06-06 09:00:00 21.8 14 Sur 22 Sudoeste 0 1001.5 -- 75
2020-06-06 08:00:00 20.6 13 Sudoeste 21 Sur 0 1001.5 -- 80
2020-06-06 07:00:00 17.4 11 Sudoeste 15 Sur 0 1001.6 -- 89
2020-06-06 06:00:00 14.3 4 Sudoeste 9 Sudoeste 0 1001.2 -- 91
2020-06-06 05:00:00 15.2 4 Sudoeste 11 Sudoeste 0 1001.6 -- 89
2020-06-06 04:00:00 16.8 10 Sudoeste 13 Sudoeste 0 1001.8 -- 86
2020-06-06 03:00:00 17.5 8 Sudoeste 17 Sudoeste 0 1002 -- 83
2020-06-06 02:00:00 17.1 10 Sudoeste 15 Sudoeste 0 1002.5 -- 86
2020-06-06 01:00:00 16.6 10 Sudoeste 13 Sudoeste 0 1003 -- 85
2020-06-06 00:00:00 16.9 8 Oeste 11 Oeste 0 1002.8 -- 83